createdAt,value
2022-08-08T00:01:16.626Z,10.33
2022-08-08T00:03:43.379Z,8.77
2022-08-08T00:06:34.778Z,9.40
2022-08-08T00:09:16.020Z,8.90
2022-08-08T00:12:02.794Z,11.07
2022-08-08T00:14:54.913Z,9.10
2022-08-08T00:17:35.204Z,11.33
2022-08-08T00:20:24.196Z,8.17
2022-08-08T00:22:54.105Z,7.33
2022-08-08T00:25:23.324Z,8.90
2022-08-08T00:27:51.066Z,8.43
2022-08-08T00:30:18.787Z,9.93
2022-08-08T00:32:58.811Z,9.10
2022-08-08T00:35:29.860Z,9.20
2022-08-08T00:38:16.932Z,7.70
2022-08-08T00:41:16.986Z,7.37
2022-08-08T00:44:00.833Z,9.77
2022-08-08T00:46:27.672Z,9.60
2022-08-08T00:49:17.267Z,10.77
2022-08-08T00:52:03.505Z,10.23
2022-08-08T00:54:32.496Z,8.50
2022-08-08T00:57:34.079Z,10.57
2022-08-08T01:00:07.709Z,12.20
2022-08-08T01:03:59.344Z,9.37
2022-08-08T01:05:59.440Z,11.40
2022-08-08T01:08:28.648Z,10.17
2022-08-08T01:10:56.574Z,9.67
2022-08-08T01:13:23.068Z,9.27
2022-08-08T01:16:18.127Z,9.90
2022-08-08T01:19:02.650Z,8.90
2022-08-08T01:22:13.247Z,8.90
2022-08-08T01:25:00.551Z,9.03
2022-08-08T01:27:43.568Z,9.27
2022-08-08T01:30:25.975Z,9.30
2022-08-08T01:33:16.253Z,9.93
2022-08-08T01:36:12.119Z,11.67
2022-08-08T01:38:56.582Z,10.47
2022-08-08T01:41:26.351Z,10.93
2022-08-08T01:44:00.517Z,10.63
2022-08-08T01:46:52.432Z,10.53
2022-08-08T01:49:22.961Z,10.17
2022-08-08T01:52:52.195Z,10.33
2022-08-08T01:56:27.341Z,9.73
2022-08-08T01:58:32.034Z,10.10
2022-08-08T02:01:19.669Z,11.17
2022-08-08T02:04:08.755Z,9.63
2022-08-08T02:06:40.915Z,11.43
2022-08-08T02:09:19.142Z,9.73
2022-08-08T02:12:12.639Z,8.53
2022-08-08T02:14:49.892Z,8.00
2022-08-08T02:17:43.111Z,9.60
2022-08-08T02:20:15.955Z,10.07
2022-08-08T02:22:52.635Z,12.27
2022-08-08T02:25:23.698Z,8.57
2022-08-08T02:28:16.487Z,8.87
2022-08-08T02:31:01.860Z,14.17
2022-08-08T02:33:41.542Z,9.03
2022-08-08T02:36:37.830Z,9.47
2022-08-08T02:39:40.348Z,8.97
2022-08-08T02:42:07.895Z,8.93
2022-08-08T02:44:58.001Z,9.37
2022-08-08T02:47:47.097Z,10.00
2022-08-08T02:50:37.373Z,11.03
2022-08-08T02:53:06.373Z,10.37
2022-08-08T02:55:48.835Z,8.47
2022-08-08T02:58:38.327Z,9.67
2022-08-08T03:01:15.057Z,9.33
2022-08-08T03:05:03.898Z,9.93
2022-08-08T03:07:07.498Z,9.00
2022-08-08T03:10:06.499Z,8.47
2022-08-08T03:13:02.252Z,9.60
2022-08-08T03:15:56.986Z,8.63
2022-08-08T03:18:34.372Z,8.97
2022-08-08T03:21:01.750Z,9.40
2022-08-08T03:23:56.232Z,9.30
2022-08-08T03:26:30.884Z,10.00
2022-08-08T03:29:04.110Z,9.73
2022-08-08T03:32:06.578Z,12.57
2022-08-08T03:34:34.349Z,8.50
2022-08-08T03:37:00.834Z,8.00
2022-08-08T03:39:51.500Z,8.30
2022-08-08T03:42:30.142Z,11.50
2022-08-08T03:44:57.397Z,9.57
2022-08-08T03:47:25.908Z,8.57
2022-08-08T03:50:24.662Z,8.47
2022-08-08T03:52:53.048Z,7.63
2022-08-08T03:55:56.289Z,6.97
2022-08-08T03:58:35.547Z,7.97
2022-08-08T04:01:20.556Z,6.73
2022-08-08T04:03:59.476Z,8.97
2022-08-08T04:06:29.822Z,7.67
2022-08-08T04:08:56.892Z,11.13
2022-08-08T04:11:25.247Z,8.07
2022-08-08T04:14:03.918Z,8.10
2022-08-08T04:16:41.070Z,7.07
2022-08-08T04:19:23.427Z,11.80
2022-08-08T04:21:52.073Z,9.30
2022-08-08T04:24:28.841Z,8.97
2022-08-08T04:26:58.770Z,7.73
2022-08-08T04:29:25.651Z,10.73
2022-08-08T04:31:58.272Z,8.33
2022-08-08T04:34:32.300Z,9.77
2022-08-08T04:37:10.187Z,7.90
2022-08-08T04:40:04.621Z,8.80
2022-08-08T04:42:26.082Z,8.80
2022-08-08T04:44:55.638Z,9.73
2022-08-08T04:47:24.582Z,8.13
2022-08-08T04:50:00.602Z,6.73
2022-08-08T04:52:33.797Z,9.37
2022-08-08T04:55:01.508Z,7.23
2022-08-08T04:57:31.196Z,8.03
2022-08-08T05:00:00.831Z,8.00
2022-08-08T05:02:31.152Z,7.00
2022-08-08T05:04:59.340Z,6.87
2022-08-08T05:07:26.749Z,8.23
2022-08-08T05:10:05.076Z,8.13
2022-08-08T05:12:36.618Z,12.03
2022-08-08T05:15:04.519Z,10.03
2022-08-08T05:17:53.397Z,8.47
2022-08-08T05:20:18.265Z,11.53
2022-08-08T05:22:44.713Z,7.23
2022-08-08T05:25:11.146Z,11.83
2022-08-08T05:27:41.460Z,8.93
2022-08-08T05:30:11.120Z,8.07
2022-08-08T05:32:38.475Z,8.50
2022-08-08T05:35:06.821Z,8.43
2022-08-08T05:37:52.873Z,8.60
2022-08-08T05:40:28.727Z,9.50
2022-08-08T05:42:59.262Z,7.83
2022-08-08T05:45:41.300Z,8.10
2022-08-08T05:48:09.826Z,9.87
2022-08-08T05:50:39.018Z,8.53
2022-08-08T05:53:53.996Z,8.07
2022-08-08T05:56:07.842Z,7.27
2022-08-08T05:58:54.026Z,6.33
2022-08-08T06:01:56.053Z,6.60
2022-08-08T06:04:23.305Z,7.53
2022-08-08T06:06:51.509Z,8.27
2022-08-08T06:09:58.894Z,6.10
2022-08-08T06:12:06.422Z,7.57
2022-08-08T06:14:32.913Z,14.73
2022-08-08T06:17:01.454Z,11.40
2022-08-08T06:19:29.004Z,9.63
2022-08-08T06:22:31.711Z,7.23
2022-08-08T06:24:53.317Z,7.87
2022-08-08T06:27:25.589Z,7.87
2022-08-08T06:30:02.743Z,4.77
2022-08-08T06:32:31.244Z,6.60
2022-08-08T06:36:04.349Z,6.60
2022-08-08T06:37:55.711Z,4.20
2022-08-08T06:40:25.862Z,7.97
2022-08-08T06:42:55.234Z,4.37
2022-08-08T06:45:23.200Z,5.17
2022-08-08T06:47:58.282Z,4.47
2022-08-08T06:50:32.040Z,6.97
2022-08-08T06:53:13.870Z,6.47
2022-08-08T06:55:43.719Z,6.50
2022-08-08T06:58:14.052Z,7.77
2022-08-08T07:00:45.324Z,6.70
2022-08-08T07:04:37.445Z,4.07
2022-08-08T07:06:10.036Z,8.13
2022-08-08T07:08:42.634Z,5.00
2022-08-08T07:11:22.058Z,3.40
2022-08-08T07:14:00.992Z,6.13
2022-08-08T07:16:37.816Z,4.30
2022-08-08T07:19:27.479Z,4.80
2022-08-08T07:22:05.598Z,4.23
2022-08-08T07:24:41.416Z,5.00
2022-08-08T07:27:11.259Z,4.53
2022-08-08T07:30:01.956Z,7.20
2022-08-08T07:32:29.966Z,6.33
2022-08-08T07:35:00.119Z,4.20
2022-08-08T07:37:28.475Z,3.77
2022-08-08T07:40:21.072Z,6.17
2022-08-08T07:42:55.287Z,8.97
2022-08-08T07:45:22.246Z,4.73
2022-08-08T07:47:54.797Z,5.10
2022-08-08T07:50:23.421Z,6.80
2022-08-08T07:52:56.540Z,3.63
2022-08-08T07:55:28.971Z,3.33
2022-08-08T07:58:13.803Z,4.90
2022-08-08T08:00:41.084Z,4.10
2022-08-08T08:03:20.716Z,5.00
2022-08-08T08:05:51.841Z,5.60
2022-08-08T08:08:21.576Z,4.83
2022-08-08T08:10:54.390Z,4.27
2022-08-08T08:13:25.126Z,3.43
2022-08-08T08:15:54.624Z,2.27
2022-08-08T08:18:31.698Z,4.53
2022-08-08T08:20:58.890Z,5.43
2022-08-08T08:23:27.595Z,3.93
2022-08-08T08:25:58.526Z,2.03
2022-08-08T08:28:26.717Z,5.03
2022-08-08T08:30:53.921Z,3.00
2022-08-08T08:33:20.371Z,4.03
2022-08-08T08:36:20.328Z,5.70
2022-08-08T08:38:33.720Z,5.03
2022-08-08T08:41:01.154Z,5.97
2022-08-08T08:43:33.164Z,3.23
2022-08-08T08:46:03.673Z,5.63
2022-08-08T08:48:32.316Z,6.37
2022-08-08T08:51:00.179Z,5.63
2022-08-08T08:53:54.525Z,4.60
2022-08-08T08:56:14.131Z,4.53
2022-08-08T08:58:50.231Z,4.20
2022-08-08T09:01:18.064Z,4.60
2022-08-08T09:03:50.768Z,5.70
2022-08-08T09:06:28.690Z,4.00
2022-08-08T09:09:26.649Z,4.30
2022-08-08T09:12:01.958Z,4.10
2022-08-08T09:14:34.458Z,2.97
2022-08-08T09:17:05.485Z,3.10
2022-08-08T09:22:00.135Z,4.97
2022-08-08T09:22:26.705Z,3.13
2022-08-08T09:24:54.950Z,3.23
2022-08-08T09:27:22.693Z,5.35
2022-08-08T09:30:10.037Z,3.92
2022-08-08T09:32:38.319Z,5.90
2022-08-08T09:35:10.964Z,3.67
2022-08-08T09:38:00.888Z,4.05
2022-08-08T09:40:43.847Z,5.53
2022-08-08T09:43:40.835Z,5.15
2022-08-08T09:46:16.707Z,4.57
2022-08-08T09:48:53.787Z,2.95
2022-08-08T09:51:23.338Z,6.18
2022-08-08T09:54:07.510Z,2.95
2022-08-08T09:56:41.471Z,6.78
2022-08-08T09:59:40.393Z,3.97
2022-08-08T10:02:12.947Z,4.38
2022-08-08T10:04:47.754Z,4.60
2022-08-08T10:07:15.977Z,4.28
2022-08-08T10:09:59.479Z,5.43
2022-08-08T10:12:53.077Z,6.38
2022-08-08T10:15:20.242Z,4.07
2022-08-08T10:18:05.601Z,4.80
2022-08-08T10:20:58.146Z,4.20
2022-08-08T10:23:51.033Z,3.33
2022-08-08T10:26:31.058Z,5.50
2022-08-08T10:29:11.802Z,2.92
2022-08-08T10:32:05.911Z,3.80
2022-08-08T10:34:35.111Z,4.72
2022-08-08T10:37:02.154Z,7.88
2022-08-08T10:39:54.683Z,4.70
2022-08-08T10:42:27.081Z,5.03
2022-08-08T10:45:00.258Z,6.07
2022-08-08T10:47:42.971Z,3.70
2022-08-08T10:50:10.728Z,3.67
2022-08-08T10:52:45.060Z,4.25
2022-08-08T10:55:14.183Z,4.10
2022-08-08T10:57:50.534Z,5.30
2022-08-08T11:00:25.639Z,3.97
2022-08-08T11:02:52.768Z,6.00
2022-08-08T11:05:19.236Z,5.65
2022-08-08T11:08:37.710Z,4.82
2022-08-08T11:10:36.027Z,4.45
2022-08-08T11:13:29.022Z,3.28
2022-08-08T11:15:58.754Z,4.03
2022-08-08T11:18:29.910Z,3.55
2022-08-08T11:20:57.525Z,4.28
2022-08-08T11:23:25.113Z,3.30
2022-08-08T11:25:58.880Z,2.28
2022-08-08T11:28:30.446Z,3.55
2022-08-08T11:30:59.901Z,4.18
2022-08-08T11:33:51.167Z,3.83
2022-08-08T11:36:15.146Z,4.60
2022-08-08T11:38:53.735Z,3.20
2022-08-08T11:41:22.285Z,6.00
2022-08-08T11:43:49.209Z,5.35
2022-08-08T11:46:17.993Z,4.45
2022-08-08T11:48:47.352Z,4.85
2022-08-08T11:51:30.545Z,3.15
2022-08-08T11:54:04.284Z,7.43
2022-08-08T11:56:35.042Z,5.55
2022-08-08T11:59:11.789Z,5.13
2022-08-08T12:01:38.632Z,4.70
2022-08-08T12:04:05.883Z,2.28
2022-08-08T12:06:33.466Z,4.45
2022-08-08T12:09:17.127Z,3.90
2022-08-08T12:11:46.045Z,3.00
2022-08-08T12:14:22.204Z,5.47
2022-08-08T12:16:52.455Z,7.43
2022-08-08T12:19:37.425Z,3.42
2022-08-08T12:22:13.494Z,2.75
2022-08-08T12:24:53.878Z,4.70
2022-08-08T12:27:26.500Z,4.80
2022-08-08T12:29:57.341Z,3.42
2022-08-08T12:32:23.791Z,3.72
2022-08-08T12:35:01.451Z,2.20
2022-08-08T12:37:40.158Z,4.43
2022-08-08T12:40:13.786Z,3.08
2022-08-08T12:42:50.685Z,2.15
2022-08-08T12:45:53.780Z,1.98
2022-08-08T12:48:18.174Z,3.67
2022-08-08T12:50:54.830Z,4.80
2022-08-08T12:53:30.038Z,2.65
2022-08-08T12:56:18.392Z,2.42
2022-08-08T12:58:47.955Z,2.75
2022-08-08T13:01:15.457Z,2.78
2022-08-08T13:03:49.113Z,4.13
2022-08-08T13:06:19.229Z,2.78
2022-08-08T13:08:53.768Z,3.58
2022-08-08T13:11:28.720Z,2.42
2022-08-08T13:14:15.489Z,5.20
2022-08-08T13:16:42.735Z,4.15
2022-08-08T13:19:17.904Z,4.03
2022-08-08T13:21:52.979Z,5.30
2022-08-08T13:24:42.083Z,2.45
2022-08-08T13:27:15.838Z,4.78
2022-08-08T13:29:55.750Z,2.53
2022-08-08T13:32:23.639Z,3.75
2022-08-08T13:34:53.284Z,2.22
2022-08-08T13:37:52.072Z,2.08
2022-08-08T13:40:07.492Z,2.15
2022-08-08T13:42:34.567Z,2.47
2022-08-08T13:45:01.731Z,5.55
2022-08-08T13:47:31.163Z,5.10
2022-08-08T13:50:35.745Z,4.30
2022-08-08T13:52:50.703Z,3.13
2022-08-08T13:55:28.750Z,3.40
2022-08-08T13:58:07.754Z,3.10
2022-08-08T14:00:45.155Z,4.68
2022-08-08T14:03:53.955Z,3.00
2022-08-08T14:06:33.478Z,4.70
2022-08-08T14:08:57.680Z,5.65
2022-08-08T14:11:25.336Z,5.32
2022-08-08T14:14:00.452Z,9.55
2022-08-08T14:16:27.552Z,6.15
2022-08-08T14:18:55.728Z,4.90
2022-08-08T14:21:23.868Z,3.35
2022-08-08T14:24:07.385Z,4.55
2022-08-08T14:26:45.990Z,4.72
2022-08-08T14:29:28.279Z,4.47
2022-08-08T14:32:09.127Z,4.90
2022-08-08T14:34:42.824Z,4.70
2022-08-08T14:37:10.144Z,5.57
2022-08-08T14:39:50.826Z,3.97
2022-08-08T14:42:30.410Z,6.13
2022-08-08T14:45:00.268Z,4.13
2022-08-08T14:47:27.161Z,5.68
2022-08-08T14:50:10.673Z,5.35
2022-08-08T14:52:41.473Z,5.60
2022-08-08T14:55:09.937Z,3.42
2022-08-08T14:58:02.734Z,4.03
2022-08-08T15:00:27.915Z,4.53
2022-08-08T15:03:14.587Z,6.47
2022-08-08T15:05:53.337Z,4.03
2022-08-08T15:08:34.986Z,3.17
2022-08-08T15:11:05.540Z,6.55
2022-08-08T15:13:39.839Z,5.32
2022-08-08T15:16:12.210Z,2.47
2022-08-08T15:18:50.169Z,2.63
2022-08-08T15:21:18.520Z,8.98
2022-08-08T15:23:51.131Z,5.57
2022-08-08T15:26:18.674Z,4.38
2022-08-08T15:28:45.199Z,4.47
2022-08-08T15:31:25.789Z,3.88
2022-08-08T15:33:58.437Z,2.70
2022-08-08T15:36:28.650Z,5.30
2022-08-08T15:38:55.400Z,2.45
2022-08-08T15:41:24.522Z,1.73
2022-08-08T15:44:00.681Z,2.92
2022-08-08T15:46:35.242Z,6.53
2022-08-08T15:49:01.943Z,6.20
2022-08-08T15:51:33.616Z,4.95
2022-08-08T15:54:00.788Z,4.10
2022-08-08T15:56:27.222Z,2.97
2022-08-08T15:58:53.611Z,3.10
2022-08-08T16:01:23.538Z,6.70
2022-08-08T16:04:07.540Z,5.38
2022-08-08T16:06:50.288Z,4.43
2022-08-08T16:13:12.124Z,3.03
2022-08-08T16:13:15.025Z,2.25
2022-08-08T16:14:53.459Z,2.85
2022-08-08T16:17:58.097Z,4.10
2022-08-08T16:20:12.687Z,4.60
2022-08-08T16:22:41.731Z,4.03
2022-08-08T16:25:08.923Z,5.10
2022-08-08T16:27:36.887Z,4.85
2022-08-08T16:30:13.220Z,3.60
2022-08-08T16:32:42.671Z,1.70
2022-08-08T16:35:09.651Z,2.63
2022-08-08T16:37:40.304Z,4.20
2022-08-08T16:40:10.365Z,3.63
2022-08-08T16:42:40.524Z,4.90
2022-08-08T16:46:35.658Z,4.97
2022-08-08T16:47:56.490Z,5.10
2022-08-08T16:50:23.168Z,6.85
2022-08-08T16:55:05.351Z,5.50
2022-08-08T16:55:55.368Z,9.82
2022-08-08T16:58:25.571Z,3.42
2022-08-08T17:00:53.048Z,5.65
2022-08-08T17:03:24.802Z,4.72
2022-08-08T17:06:01.833Z,3.42
2022-08-08T17:08:28.608Z,2.50
2022-08-08T17:10:58.716Z,2.38
2022-08-08T17:13:41.301Z,2.45
2022-08-08T17:16:17.113Z,2.80
2022-08-08T17:18:45.421Z,2.85
2022-08-08T17:21:12.498Z,4.10
2022-08-08T17:24:00.024Z,5.35
2022-08-08T17:26:28.957Z,3.17
2022-08-08T17:28:56.116Z,2.60
2022-08-08T17:31:45.160Z,4.88
2022-08-08T17:34:36.933Z,3.75
2022-08-08T17:37:00.957Z,4.20
2022-08-08T17:40:04.568Z,4.50
2022-08-08T17:42:17.896Z,4.63
2022-08-08T17:44:45.095Z,30.35
2022-08-08T17:47:15.949Z,4.90
2022-08-08T17:49:43.571Z,6.60
2022-08-08T17:52:10.576Z,8.02
2022-08-08T17:54:37.224Z,3.97
2022-08-08T17:57:03.793Z,2.70
2022-08-08T17:59:36.375Z,5.85
2022-08-08T18:02:16.167Z,3.92
2022-08-08T18:04:49.452Z,3.85
2022-08-08T18:08:02.941Z,4.47
2022-08-08T18:10:04.540Z,2.78
2022-08-08T18:12:31.009Z,3.83
2022-08-08T18:14:57.652Z,4.18
2022-08-08T18:17:28.532Z,3.27
2022-08-08T18:20:36.595Z,5.10
2022-08-08T18:22:59.558Z,3.23
2022-08-08T18:25:26.037Z,5.45
2022-08-08T18:28:03.765Z,5.83
2022-08-08T18:30:30.215Z,2.90
2022-08-08T18:32:58.866Z,3.13
2022-08-08T18:35:34.214Z,2.60
2022-08-08T18:38:17.076Z,5.03
2022-08-08T18:40:45.707Z,3.33
2022-08-08T18:43:16.603Z,5.17
2022-08-08T18:45:44.762Z,2.73
2022-08-08T18:48:27.562Z,3.37
2022-08-08T18:50:58.745Z,2.27
2022-08-08T18:53:25.727Z,4.87
2022-08-08T18:56:22.219Z,2.43
2022-08-08T18:58:49.405Z,4.13
2022-08-08T19:02:14.195Z,4.03
2022-08-08T19:04:10.412Z,3.87
2022-08-08T19:06:37.813Z,3.23
2022-08-08T19:09:12.936Z,2.57
2022-08-08T19:11:40.291Z,6.13
2022-08-08T19:14:13.213Z,1.73
2022-08-08T19:16:46.927Z,3.57
2022-08-08T19:19:14.246Z,2.33
2022-08-08T19:21:48.601Z,3.93
2022-08-08T19:24:42.211Z,2.10
2022-08-08T19:27:03.095Z,2.63
2022-08-08T19:29:30.485Z,5.33
2022-08-08T19:31:57.437Z,2.73
2022-08-08T19:34:35.764Z,4.07
2022-08-08T19:37:07.617Z,2.20
2022-08-08T19:39:42.783Z,4.87
2022-08-08T19:42:13.526Z,4.80
2022-08-08T19:44:45.802Z,7.47
2022-08-08T19:47:12.845Z,4.23
2022-08-08T19:49:39.330Z,5.67
2022-08-08T19:52:10.499Z,2.60
2022-08-08T19:54:38.352Z,4.93
2022-08-08T19:57:08.008Z,3.30
2022-08-08T19:59:35.115Z,3.67
2022-08-08T20:02:05.060Z,2.50
2022-08-08T20:04:32.490Z,3.57
2022-08-08T20:07:05.622Z,3.27
2022-08-08T20:09:56.209Z,3.63
2022-08-08T20:12:32.492Z,8.07
2022-08-08T20:15:02.013Z,3.90
2022-08-08T20:17:41.913Z,6.60
2022-08-08T20:20:09.991Z,4.13
2022-08-08T20:22:40.344Z,3.30
2022-08-08T20:25:08.116Z,3.53
2022-08-08T20:27:49.250Z,4.43
2022-08-08T20:30:52.404Z,5.20
2022-08-08T20:33:17.181Z,5.17
2022-08-08T20:35:57.987Z,3.00
2022-08-08T20:38:29.219Z,4.00
2022-08-08T20:40:59.564Z,2.80
2022-08-08T20:43:43.720Z,2.90
2022-08-08T20:46:13.393Z,4.87
2022-08-08T20:48:39.794Z,4.80
2022-08-08T20:51:10.050Z,5.67
2022-08-08T20:53:59.966Z,2.60
2022-08-08T20:56:35.231Z,4.00
2022-08-08T20:59:03.236Z,5.03
2022-08-08T21:01:32.468Z,4.80
2022-08-08T21:04:14.357Z,4.50
2022-08-08T21:06:52.954Z,4.33
2022-08-08T21:09:20.629Z,6.27
2022-08-08T21:11:51.568Z,8.37
2022-08-08T21:14:18.929Z,2.43
2022-08-08T21:17:00.375Z,1.80
2022-08-08T21:19:44.384Z,4.17
2022-08-08T21:22:13.769Z,3.33
2022-08-08T21:24:52.171Z,3.77
2022-08-08T21:27:38.839Z,4.90
2022-08-08T21:30:16.281Z,4.07
2022-08-08T21:32:51.712Z,4.00
2022-08-08T21:36:18.666Z,6.20
2022-08-08T21:38:08.547Z,6.73
2022-08-08T21:40:56.508Z,3.17
2022-08-08T21:43:33.336Z,5.17
2022-08-08T21:48:04.552Z,5.73
2022-08-08T21:48:49.433Z,4.53
2022-08-08T21:52:09.835Z,2.37
2022-08-08T21:54:31.358Z,2.87
2022-08-08T21:56:51.516Z,2.87
2022-08-08T21:59:18.075Z,3.07
2022-08-08T22:01:52.455Z,5.23
2022-08-08T22:04:22.446Z,4.00
2022-08-08T22:06:51.483Z,3.30
2022-08-08T22:09:18.748Z,4.00
2022-08-08T22:11:59.097Z,5.47
2022-08-08T22:14:33.463Z,2.80
2022-08-08T22:17:01.210Z,2.93
2022-08-08T22:19:29.513Z,3.03
2022-08-08T22:21:56.297Z,3.77
2022-08-08T22:24:28.238Z,2.40
2022-08-08T22:27:01.754Z,2.77
2022-08-08T22:30:01.670Z,2.13
2022-08-08T22:32:19.196Z,3.10
2022-08-08T22:34:51.296Z,3.77
2022-08-08T22:37:28.156Z,2.03
2022-08-08T22:40:05.199Z,3.50
2022-08-08T22:42:34.780Z,3.63
2022-08-08T22:45:01.905Z,4.53
2022-08-08T22:47:37.608Z,1.73
2022-08-08T22:50:06.051Z,2.33
2022-08-08T22:53:22.543Z,4.63
2022-08-08T22:55:58.290Z,4.33
2022-08-08T22:58:22.089Z,3.10
2022-08-08T23:00:55.080Z,3.63
2022-08-08T23:03:21.653Z,4.83
2022-08-08T23:05:49.687Z,1.97
2022-08-08T23:08:19.827Z,4.07
2022-08-08T23:10:53.053Z,3.57
2022-08-08T23:13:25.618Z,4.20
2022-08-08T23:16:37.965Z,2.57
2022-08-08T23:18:55.036Z,2.53
2022-08-08T23:21:21.479Z,2.30
2022-08-08T23:23:48.453Z,3.07
2022-08-08T23:26:15.352Z,2.13
2022-08-08T23:28:41.741Z,3.20
2022-08-08T23:31:08.150Z,1.43
2022-08-08T23:34:15.778Z,5.60
2022-08-08T23:36:26.473Z,8.40
2022-08-08T23:38:53.049Z,2.87
2022-08-08T23:41:24.788Z,5.80
2022-08-08T23:43:54.362Z,3.83
2022-08-08T23:49:06.938Z,5.23
2022-08-08T23:49:18.492Z,3.40
2022-08-08T23:52:06.259Z,3.50
2022-08-08T23:54:42.478Z,2.70
2022-08-08T23:57:27.755Z,3.13
